Time;durP1;ratioP1;P1;durP2;ratioP2;P2;SDS_P1;SDS_P2;PMS_P1;PMS_P2;Temp;Humidity;BMP_temperature;BMP_pressure;BME280_temperature;BME280_humidity;BME280_pressure;Samples;Min_cycle;Max_cycle;Signal;HPM_P1;HPM_P2
2022/10/25 00:01:17;;;;;;;23.25;10.35;;;19.20;92.00;;;;;;5052390;28;20415;-68
2022/10/25 00:03:43;;;;;;;25.25;10.45;;;19.20;91.70;;;;;;5052410;28;20499;-68
2022/10/25 00:06:10;;;;;;;20.35;10.30;;;19.20;91.90;;;;;;5052464;28;20067;-68
2022/10/25 00:08:36;;;;;;;24.58;10.20;;;19.20;91.80;;;;;;5052501;28;20025;-69
2022/10/25 00:11:02;;;;;;;19.00;10.35;;;19.10;91.60;;;;;;5052553;28;20439;-68
2022/10/25 00:13:27;;;;;;;27.30;10.00;;;19.10;91.70;;;;;;5052166;28;20056;-68
2022/10/25 00:15:53;;;;;;;20.00;10.10;;;19.10;91.80;;;;;;5052242;28;20029;-69
2022/10/25 00:18:19;;;;;;;16.80;10.05;;;19.20;91.90;;;;;;5052308;28;20041;-68
2022/10/25 00:20:45;;;;;;;19.70;9.70;;;19.10;91.80;;;;;;5052281;28;20044;-68
2022/10/25 00:23:12;;;;;;;22.77;10.57;;;19.10;91.90;;;;;;5052489;28;20041;-68
2022/10/25 00:25:38;;;;;;;20.92;10.48;;;19.10;92.10;;;;;;5052572;28;20044;-68
2022/10/25 00:28:04;;;;;;;20.90;10.23;;;19.10;92.30;;;;;;5052478;28;20030;-68
2022/10/25 00:30:30;;;;;;;17.88;10.00;;;19.00;92.50;;;;;;5052757;28;20033;-69
2022/10/25 00:32:57;;;;;;;17.02;10.38;;;19.00;92.60;;;;;;5052079;28;20037;-68
2022/10/25 00:35:23;;;;;;;20.23;10.27;;;19.00;92.50;;;;;;5052228;28;20033;-68
2022/10/25 00:37:48;;;;;;;22.60;9.65;;;19.00;92.50;;;;;;5052206;28;20033;-68
2022/10/25 00:40:15;;;;;;;18.98;9.00;;;19.00;92.40;;;;;;5052025;28;20059;-68
2022/10/25 00:42:40;;;;;;;16.23;8.90;;;19.10;92.40;;;;;;5052382;28;20422;-68
2022/10/25 00:45:27;;;;;;;22.52;9.35;;;19.10;92.10;;;;;;5051978;28;20033;-68
2022/10/25 00:48:01;;;;;;;16.85;8.20;;;19.20;91.80;;;;;;5051694;28;20037;-68
2022/10/25 00:50:37;;;;;;;13.25;8.15;;;19.20;91.70;;;;;;5052416;28;20099;-68
2022/10/25 00:53:26;;;;;;;16.15;8.32;;;19.20;91.70;;;;;;5055437;28;20037;-68
2022/10/25 00:56:00;;;;;;;16.75;7.93;;;19.20;91.80;;;;;;5055998;28;20029;-68
2022/10/25 00:58:30;;;;;;;16.27;7.05;;;19.10;91.90;;;;;;5054396;28;20096;-68
2022/10/25 01:00:56;;;;;;;13.63;5.28;;;19.20;92.00;;;;;;5052964;28;20152;-68
2022/10/25 01:03:23;;;;;;;11.57;4.95;;;19.10;91.50;;;;;;5052928;28;20057;-68
2022/10/25 01:05:50;;;;;;;9.10;3.80;;;19.10;91.40;;;;;;5054996;28;20033;-68
2022/10/25 01:08:17;;;;;;;6.78;2.92;;;19.10;91.00;;;;;;5055549;28;20044;-67
2022/10/25 01:10:43;;;;;;;3.58;2.22;;;19.00;90.00;;;;;;5055849;28;20041;-68
2022/10/25 01:13:09;;;;;;;6.75;1.85;;;19.00;89.90;;;;;;5055169;28;20410;-68
2022/10/25 01:15:47;;;;;;;3.22;1.73;;;19.00;87.80;;;;;;5055323;28;20029;-69
2022/10/25 01:18:21;;;;;;;6.53;1.75;;;19.00;86.70;;;;;;5055174;28;20040;-69
2022/10/25 01:21:27;;;;;;;4.93;1.67;;;18.90;87.40;;;;;;5055268;28;20044;-68
2022/10/25 01:24:31;;;;;;;3.33;1.63;;;18.90;87.60;;;;;;5055078;28;20037;-68
2022/10/25 01:27:21;;;;;;;7.18;1.58;;;18.80;88.70;;;;;;5050237;28;20037;-68
2022/10/25 01:29:53;;;;;;;4.35;1.65;;;18.80;89.60;;;;;;5054935;28;20043;-68
2022/10/25 01:32:41;;;;;;;8.23;1.63;;;18.70;90.00;;;;;;5054826;28;20057;-68
2022/10/25 01:35:20;;;;;;;7.40;1.73;;;18.70;90.10;;;;;;5055146;28;20068;-68
2022/10/25 01:37:56;;;;;;;3.40;1.73;;;18.60;90.00;;;;;;5055023;28;20037;-68
2022/10/25 01:40:27;;;;;;;5.07;1.70;;;18.60;89.80;;;;;;5055012;28;20497;-67
2022/10/25 01:42:59;;;;;;;3.92;1.80;;;18.50;90.10;;;;;;5055008;28;20397;-69
2022/10/25 01:45:32;;;;;;;5.45;1.60;;;18.50;90.60;;;;;;5054909;28;20075;-68
2022/10/25 01:48:05;;;;;;;1.95;1.27;;;18.40;90.90;;;;;;5054918;28;20029;-68
2022/10/25 01:50:33;;;;;;;;;;;18.40;90.90;;;;;;5055167;28;20033;-68
2022/10/25 01:52:59;;;;;;;3.97;1.25;;;18.40;91.00;;;;;;5054901;28;20003;-68
2022/10/25 01:55:35;;;;;;;5.38;1.70;;;18.40;91.00;;;;;;5055106;28;20049;-68
2022/10/25 01:58:12;;;;;;;4.70;1.40;;;18.40;90.70;;;;;;5054464;28;20035;-68
2022/10/25 02:00:53;;;;;;;4.88;1.20;;;18.40;90.50;;;;;;5054883;28;20393;-68
2022/10/25 02:03:51;;;;;;;5.40;1.20;;;18.30;90.00;;;;;;5054188;28;20045;-68
2022/10/25 02:06:35;;;;;;;4.22;1.52;;;18.30;90.00;;;;;;5054609;28;20037;-68
2022/10/25 02:09:06;;;;;;;8.07;1.65;;;18.20;90.00;;;;;;5054290;28;20067;-68
2022/10/25 02:11:33;;;;;;;10.43;1.60;;;18.20;90.00;;;;;;5054298;28;20037;-68
2022/10/25 02:14:26;;;;;;;3.25;1.52;;;18.20;90.30;;;;;;5054354;28;20045;-68
2022/10/25 02:17:03;;;;;;;6.18;1.60;;;18.20;90.50;;;;;;5054394;28;20132;-68
2022/10/25 02:19:33;;;;;;;5.07;1.70;;;18.20;91.00;;;;;;5053992;28;20045;-67
2022/10/25 02:22:01;;;;;;;3.90;1.77;;;18.20;91.20;;;;;;5054567;28;20392;-68
2022/10/25 02:24:29;;;;;;;6.60;2.20;;;18.20;91.20;;;;;;5054458;28;20037;-68
2022/10/25 02:26:56;;;;;;;7.82;2.85;;;18.20;91.20;;;;;;5054551;28;20033;-68
2022/10/25 02:29:25;;;;;;;4.68;3.08;;;18.20;91.20;;;;;;5054470;28;20037;-68
2022/10/25 02:31:51;;;;;;;11.35;4.63;;;18.20;91.50;;;;;;5053788;28;20041;-68
2022/10/25 02:34:18;;;;;;;9.70;3.92;;;18.10;91.70;;;;;;5053698;28;20040;-68
2022/10/25 02:36:48;;;;;;;8.60;3.92;;;18.10;92.00;;;;;;5054284;28;20376;-69
2022/10/25 02:39:14;;;;;;;10.07;1.50;;;18.10;92.00;;;;;;5053966;28;20021;-68
2022/10/25 02:41:40;;;;;;;23.65;3.13;;;18.10;91.30;;;;;;5053902;28;20045;-69
2022/10/25 02:44:06;;;;;;;32.42;3.10;;;17.90;92.80;;;;;;5053835;28;20084;-68
2022/10/25 02:46:31;;;;;;;22.80;3.38;;;17.50;93.80;;;;;;5053952;28;20124;-69
2022/10/25 02:48:57;;;;;;;31.33;3.55;;;17.20;94.90;;;;;;5053667;28;20036;-68
2022/10/25 02:51:23;;;;;;;6.82;1.85;;;17.00;96.10;;;;;;5053711;28;20056;-68
2022/10/25 02:53:48;;;;;;;5.18;1.52;;;17.00;96.70;;;;;;5053676;28;20123;-69
2022/10/25 02:56:18;;;;;;;12.52;1.92;;;16.90;96.40;;;;;;5053391;28;20731;-69
2022/10/25 02:58:45;;;;;;;7.10;1.85;;;16.80;96.80;;;;;;5053340;28;20115;-69
2022/10/25 03:01:12;;;;;;;7.90;1.67;;;16.80;96.80;;;;;;5053468;28;20520;-68
2022/10/25 03:03:38;;;;;;;11.23;1.85;;;16.80;96.70;;;;;;5053438;28;20053;-69
2022/10/25 03:06:04;;;;;;;7.15;1.30;;;16.80;96.90;;;;;;5053421;28;20041;-69
2022/10/25 03:08:31;;;;;;;6.00;1.20;;;16.80;96.90;;;;;;5053499;28;20071;-69
2022/10/25 03:10:56;;;;;;;5.47;1.55;;;16.80;96.90;;;;;;5053188;28;20390;-68
2022/10/25 03:13:22;;;;;;;4.10;1.20;;;16.80;96.80;;;;;;5052738;28;20119;-69
2022/10/25 03:15:48;;;;;;;5.75;1.23;;;16.80;97.10;;;;;;5052725;28;20471;-68
2022/10/25 03:18:14;;;;;;;1.30;0.80;;;16.90;96.80;;;;;;5053060;28;20429;-68
2022/10/25 03:20:41;;;;;;;4.45;0.90;;;16.90;96.60;;;;;;5052717;28;20029;-70
2022/10/25 03:23:07;;;;;;;2.75;1.00;;;16.90;96.40;;;;;;5053007;28;20483;-68
2022/10/25 03:25:32;;;;;;;6.93;0.90;;;16.90;96.50;;;;;;5053181;28;20065;-68
2022/10/25 03:28:01;;;;;;;4.40;1.08;;;16.90;96.60;;;;;;5053098;28;20075;-69
2022/10/25 03:30:29;;;;;;;2.60;1.30;;;16.90;96.60;;;;;;5052920;28;20029;-68
2022/10/25 03:32:55;;;;;;;6.75;1.98;;;16.90;96.90;;;;;;5052871;28;20394;-68
2022/10/25 03:35:20;;;;;;;4.97;2.30;;;16.90;97.00;;;;;;5052836;28;20111;-68
2022/10/25 03:37:50;;;;;;;8.15;1.60;;;16.90;97.00;;;;;;5053020;28;20152;-70
2022/10/25 03:40:16;;;;;;;13.85;2.13;;;16.90;97.60;;;;;;5053014;28;20060;-71
2022/10/25 03:42:42;;;;;;;13.43;2.13;;;16.90;97.80;;;;;;5052612;28;20033;-68
2022/10/25 03:45:08;;;;;;;5.80;2.20;;;16.90;97.80;;;;;;5052635;28;20037;-68
2022/10/25 03:47:34;;;;;;;8.20;1.50;;;16.90;97.90;;;;;;5052672;28;20123;-69
2022/10/25 03:50:00;;;;;;;8.43;2.25;;;16.90;98.30;;;;;;5052782;28;20072;-68
2022/10/25 03:52:25;;;;;;;3.58;1.85;;;16.90;98.20;;;;;;5052593;28;20495;-68
2022/10/25 03:54:51;;;;;;;14.05;2.35;;;17.00;98.10;;;;;;5052598;28;20121;-69
2022/10/25 03:57:17;;;;;;;8.25;2.45;;;16.90;98.40;;;;;;5052743;28;20033;-69
2022/10/25 03:59:43;;;;;;;5.95;2.35;;;16.90;98.50;;;;;;5052477;28;20460;-68
2022/10/25 04:02:09;;;;;;;8.20;2.25;;;16.90;98.40;;;;;;5052418;28;20037;-69
2022/10/25 04:04:35;;;;;;;6.70;2.05;;;16.90;98.50;;;;;;5052644;28;20067;-70
2022/10/25 04:07:01;;;;;;;5.53;2.40;;;16.90;98.60;;;;;;5052841;28;20041;-69
2022/10/25 04:09:26;;;;;;;5.05;2.20;;;16.90;98.60;;;;;;5052644;28;20033;-69
2022/10/25 04:11:52;;;;;;;9.60;2.92;;;16.90;98.80;;;;;;5052453;28;20391;-70
2022/10/25 04:14:18;;;;;;;12.07;1.90;;;16.90;98.50;;;;;;5052164;28;20041;-70
2022/10/25 04:16:44;;;;;;;6.28;2.20;;;16.90;98.60;;;;;;5052134;28;20033;-68
2022/10/25 04:19:09;;;;;;;9.05;1.98;;;16.90;98.60;;;;;;5052059;28;20422;-69
2022/10/25 04:21:35;;;;;;;6.22;1.90;;;17.00;98.70;;;;;;5052367;28;20537;-68
2022/10/25 04:24:00;;;;;;;4.03;1.88;;;17.00;98.70;;;;;;5052481;28;20040;-69
2022/10/25 04:26:26;;;;;;;6.32;2.22;;;17.00;98.70;;;;;;5055221;28;20033;-69
2022/10/25 04:28:53;;;;;;;4.60;1.63;;;17.00;98.70;;;;;;5056607;28;20032;-68
2022/10/25 04:31:20;;;;;;;10.77;3.00;;;17.00;98.70;;;;;;5056246;28;20102;-68
2022/10/25 04:33:53;;;;;;;4.32;1.88;;;17.00;98.50;;;;;;5056090;28;20056;-68
2022/10/25 04:36:20;;;;;;;6.82;1.80;;;17.00;98.50;;;;;;5056260;28;20041;-70
2022/10/25 04:38:50;;;;;;;7.13;1.75;;;17.00;98.40;;;;;;5056230;28;20056;-69
2022/10/25 04:41:17;;;;;;;6.30;2.13;;;17.00;98.20;;;;;;5055741;28;20116;-69
2022/10/25 04:43:43;;;;;;;6.55;2.10;;;17.00;98.10;;;;;;5053884;28;20551;-68
2022/10/25 04:46:08;;;;;;;6.65;1.73;;;16.90;98.00;;;;;;5053372;28;20132;-68
2022/10/25 04:48:39;;;;;;;7.45;2.25;;;16.90;97.70;;;;;;5054722;28;20053;-67
2022/10/25 04:51:05;;;;;;;15.95;4.70;;;16.90;97.70;;;;;;5055824;28;20120;-69
2022/10/25 04:53:30;;;;;;;7.18;1.63;;;16.80;97.60;;;;;;5061417;28;20577;-68
2022/10/25 04:56:02;;;;;;;3.00;1.27;;;16.80;97.70;;;;;;5075330;28;20157;-68
2022/10/25 04:58:27;;;;;;;4.15;1.00;;;16.80;97.80;;;;;;5075630;28;20036;-68
2022/10/25 05:00:57;;;;;;;6.80;0.93;;;16.80;97.60;;;;;;5075850;28;20039;-70
2022/10/25 05:03:23;;;;;;;4.63;1.00;;;16.70;97.50;;;;;;5075547;28;20040;-68
2022/10/25 05:05:48;;;;;;;6.38;1.00;;;16.70;97.50;;;;;;5075525;28;20033;-68
2022/10/25 05:08:14;;;;;;;4.00;0.90;;;16.70;97.30;;;;;;5074298;28;20068;-68
2022/10/25 05:10:40;;;;;;;2.60;1.00;;;16.70;97.40;;;;;;5072965;28;20161;-69
2022/10/25 05:13:05;;;;;;;5.50;1.02;;;16.70;97.40;;;;;;5072840;28;20047;-68
2022/10/25 05:15:31;;;;;;;3.00;0.90;;;16.60;97.70;;;;;;5074350;28;20024;-69
2022/10/25 05:17:57;;;;;;;2.78;1.00;;;16.60;97.50;;;;;;5075079;28;20077;-68
2022/10/25 05:20:23;;;;;;;3.17;1.00;;;16.60;97.50;;;;;;5075092;28;20043;-68
2022/10/25 05:22:49;;;;;;;3.78;1.00;;;16.60;97.50;;;;;;5074814;28;20037;-68
2022/10/25 05:25:14;;;;;;;5.03;0.80;;;16.50;97.40;;;;;;5074769;28;20544;-68
2022/10/25 05:27:40;;;;;;;2.30;0.70;;;16.50;97.50;;;;;;5074839;28;20029;-69
2022/10/25 05:30:07;;;;;;;3.38;0.80;;;16.50;97.50;;;;;;5074599;28;20036;-68
2022/10/25 05:32:33;;;;;;;2.30;0.82;;;16.50;97.40;;;;;;5074945;28;20431;-69
2022/10/25 05:34:58;;;;;;;5.82;0.80;;;16.50;97.40;;;;;;5074948;28;20040;-70
2022/10/25 05:37:24;;;;;;;6.15;0.52;;;16.50;97.20;;;;;;5073748;28;20467;-68
2022/10/25 05:39:49;;;;;;;4.00;0.80;;;16.50;97.10;;;;;;5074831;28;20636;-69
2022/10/25 05:42:15;;;;;;;5.47;0.80;;;16.50;97.10;;;;;;5075172;28;20029;-68
2022/10/25 05:44:41;;;;;;;3.08;1.38;;;16.50;97.40;;;;;;5074938;28;20375;-69
2022/10/25 05:47:07;;;;;;;5.00;0.70;;;16.50;97.50;;;;;;5074364;28;20040;-69
2022/10/25 05:49:38;;;;;;;4.60;0.70;;;16.40;97.60;;;;;;5074649;28;20478;-68
2022/10/25 05:52:08;;;;;;;14.10;0.80;;;16.50;97.50;;;;;;5074286;28;20123;-68
2022/10/25 05:54:33;;;;;;;4.50;0.77;;;16.50;97.60;;;;;;5074490;28;20044;-68
2022/10/25 05:56:59;;;;;;;1.75;0.60;;;16.40;97.60;;;;;;5074589;28;20417;-70
2022/10/25 05:59:25;;;;;;;3.15;0.90;;;16.50;97.60;;;;;;5074616;28;20453;-69
2022/10/25 06:01:50;;;;;;;4.65;0.85;;;16.40;97.70;;;;;;5074178;28;20089;-68
2022/10/25 06:04:16;;;;;;;3.88;0.80;;;16.50;97.80;;;;;;5074249;28;20051;-68
2022/10/25 06:06:44;;;;;;;1.27;0.77;;;16.50;97.60;;;;;;5074421;28;20033;-68
2022/10/25 06:09:11;;;;;;;3.20;0.70;;;16.50;97.30;;;;;;5074453;28;20436;-68
2022/10/25 06:11:38;;;;;;;4.85;0.75;;;16.50;97.30;;;;;;5074398;28;20050;-71
2022/10/25 06:14:04;;;;;;;5.18;0.90;;;16.50;96.90;;;;;;5074272;28;20049;-68
2022/10/25 06:16:30;;;;;;;6.00;0.95;;;16.40;96.70;;;;;;5074123;28;20429;-68
2022/10/25 06:18:56;;;;;;;2.70;0.50;;;16.40;96.80;;;;;;5074201;28;20034;-69
2022/10/25 06:21:27;;;;;;;3.05;1.60;;;16.40;96.70;;;;;;5073944;28;20062;-69
2022/10/25 06:23:53;;;;;;;5.40;0.85;;;16.40;96.80;;;;;;5074085;28;20116;-69
2022/10/25 06:26:24;;;;;;;1.38;0.70;;;16.40;97.10;;;;;;5074201;28;20052;-70
2022/10/25 06:28:55;;;;;;;6.97;0.70;;;16.40;97.10;;;;;;5074071;28;20102;-70
2022/10/25 06:31:21;;;;;;;1.17;0.55;;;16.40;97.20;;;;;;5074080;28;20083;-68
2022/10/25 06:33:47;;;;;;;2.35;1.00;;;16.40;97.20;;;;;;5073900;28;20116;-68
2022/10/25 06:36:23;;;;;;;3.80;0.70;;;16.40;97.30;;;;;;5073338;28;20158;-69
2022/10/25 06:38:50;;;;;;;2.45;0.70;;;16.40;97.10;;;;;;5073563;28;20066;-69
2022/10/25 06:41:30;;;;;;;2.85;0.70;;;16.30;97.30;;;;;;5073591;28;20402;-69
2022/10/25 06:43:58;;;;;;;5.15;0.90;;;16.30;97.40;;;;;;5073353;28;20037;-67
2022/10/25 06:46:26;;;;;;;3.33;0.73;;;16.30;97.50;;;;;;5073335;28;20312;-68
2022/10/25 06:48:54;;;;;;;2.67;0.65;;;16.30;97.40;;;;;;5073634;28;20090;-68
2022/10/25 06:51:21;;;;;;;2.97;0.70;;;16.40;97.40;;;;;;5073961;28;20059;-67
2022/10/25 06:53:51;;;;;;;2.72;0.77;;;16.40;97.40;;;;;;5060456;28;20509;-68
2022/10/25 06:56:17;;;;;;;3.55;0.68;;;16.40;97.40;;;;;;5053585;28;20115;-71
2022/10/25 06:58:43;;;;;;;4.97;0.70;;;16.40;97.30;;;;;;5053782;28;20104;-67
2022/10/25 07:01:11;;;;;;;4.25;0.77;;;16.40;97.30;;;;;;5053490;28;20491;-68
2022/10/25 07:03:37;;;;;;;2.35;0.90;;;16.40;96.90;;;;;;5053483;28;20053;-67
2022/10/25 07:06:14;;;;;;;1.83;0.98;;;16.40;96.80;;;;;;5053764;28;20148;-67
2022/10/25 07:08:42;;;;;;;4.20;0.93;;;16.40;96.70;;;;;;5053513;28;20079;-67
2022/10/25 07:11:16;;;;;;;13.65;1.50;;;16.40;96.90;;;;;;5053767;28;20124;-68
2022/10/25 07:13:42;;;;;;;2.08;0.70;;;16.40;96.90;;;;;;5053487;28;20045;-69
2022/10/25 07:16:10;;;;;;;5.30;0.80;;;16.50;97.00;;;;;;5053442;28;20025;-69
2022/10/25 07:18:36;;;;;;;6.38;1.10;;;16.50;97.40;;;;;;5053345;28;20044;-69
2022/10/25 07:21:04;;;;;;;5.60;1.20;;;16.50;97.50;;;;;;5053346;28;20041;-68
2022/10/25 07:23:30;;;;;;;2.33;0.93;;;16.50;97.40;;;;;;5053429;28;20434;-68
2022/10/25 07:25:57;;;;;;;3.38;0.88;;;16.60;97.20;;;;;;5053409;28;20040;-69
2022/10/25 07:28:23;;;;;;;4.72;0.90;;;16.60;97.10;;;;;;5053203;28;20092;-69
2022/10/25 07:30:48;;;;;;;3.70;1.23;;;16.60;96.80;;;;;;5053144;28;20446;-69
2022/10/25 07:33:16;;;;;;;2.25;0.82;;;16.70;96.80;;;;;;5052969;28;20423;-69
2022/10/25 07:35:46;;;;;;;2.42;1.30;;;16.70;96.60;;;;;;5052870;28;20060;-72
2022/10/25 07:38:12;;;;;;;2.25;0.93;;;16.70;96.50;;;;;;5052879;28;20065;-70
2022/10/25 07:40:38;;;;;;;6.10;1.15;;;16.70;96.50;;;;;;5050153;28;20065;-70
2022/10/25 07:43:04;;;;;;;3.40;0.70;;;16.70;96.50;;;;;;5050210;28;20475;-69
2022/10/25 07:45:29;;;;;;;5.10;0.60;;;16.70;96.50;;;;;;5051094;28;20037;-70
2022/10/25 07:47:55;;;;;;;5.30;1.20;;;16.80;96.40;;;;;;5052615;28;20407;-69
2022/10/25 07:50:21;;;;;;;5.32;0.80;;;16.80;96.30;;;;;;5053232;28;20051;-70
2022/10/25 07:52:46;;;;;;;3.70;0.93;;;16.80;96.60;;;;;;5052872;28;20421;-70
2022/10/25 07:55:12;;;;;;;4.10;0.82;;;16.80;97.10;;;;;;5052583;28;20108;-70
2022/10/25 07:57:38;;;;;;;2.28;0.75;;;16.90;97.20;;;;;;5052875;28;20037;-70
2022/10/25 08:00:06;;;;;;;4.65;0.88;;;16.90;96.90;;;;;;5052306;28;20044;-69
2022/10/25 08:02:31;;;;;;;3.25;0.60;;;16.90;96.80;;;;;;5048860;28;20052;-69
2022/10/25 08:04:57;;;;;;;1.05;0.55;;;16.90;96.60;;;;;;5050048;28;20407;-70
2022/10/25 08:07:23;;;;;;;1.88;0.70;;;17.00;96.40;;;;;;5051846;28;20030;-70
2022/10/25 08:09:48;;;;;;;3.47;0.70;;;17.00;96.50;;;;;;5052079;28;20041;-70
2022/10/25 08:12:14;;;;;;;1.35;0.73;;;17.10;96.70;;;;;;5051764;28;20029;-70
2022/10/25 08:14:39;;;;;;;2.05;0.60;;;17.10;96.90;;;;;;5050920;28;20051;-70
2022/10/25 08:17:05;;;;;;;4.68;0.88;;;17.10;96.80;;;;;;5050931;28;20025;-70
2022/10/25 08:19:31;;;;;;;2.92;0.52;;;17.20;96.90;;;;;;5051291;28;20558;-71
2022/10/25 08:21:57;;;;;;;2.58;0.77;;;17.30;96.90;;;;;;5050738;28;20039;-71
2022/10/25 08:24:22;;;;;;;4.63;0.82;;;17.30;96.90;;;;;;5051895;28;20029;-71
2022/10/25 08:26:48;;;;;;;2.00;1.00;;;17.30;97.00;;;;;;5052615;28;20518;-71
2022/10/25 08:29:14;;;;;;;3.22;0.60;;;17.40;96.90;;;;;;5050308;28;20037;-70
2022/10/25 08:31:39;;;;;;;4.88;0.60;;;17.40;96.70;;;;;;5052244;28;20090;-70
2022/10/25 08:34:05;;;;;;;3.25;0.82;;;17.40;96.40;;;;;;5052059;28;20087;-71
2022/10/25 08:36:31;;;;;;;1.55;0.60;;;17.50;96.00;;;;;;5052381;28;20033;-71
2022/10/25 08:38:56;;;;;;;0.93;0.63;;;17.50;95.60;;;;;;5052343;28;20095;-70
2022/10/25 08:41:25;;;;;;;6.38;0.80;;;17.50;95.50;;;;;;5052393;28;20519;-71
2022/10/25 08:44:07;;;;;;;6.00;1.25;;;17.50;95.20;;;;;;5052002;28;20063;-70
2022/10/25 08:46:37;;;;;;;1.87;0.60;;;17.50;95.20;;;;;;5052614;28;20040;-69
2022/10/25 08:49:14;;;;;;;4.68;0.88;;;17.60;95.60;;;;;;5052337;28;20036;-73
2022/10/25 08:51:42;;;;;;;1.80;0.93;;;17.60;95.70;;;;;;5051163;28;20106;-69
2022/10/25 08:54:28;;;;;;;2.28;0.63;;;17.60;96.30;;;;;;5051506;28;20063;-69
2022/10/25 08:57:19;;;;;;;3.92;0.70;;;17.60;96.20;;;;;;5052075;28;20075;-69
2022/10/25 08:59:53;;;;;;;5.85;0.63;;;17.60;95.90;;;;;;5051749;28;20043;-69
2022/10/25 09:02:52;;;;;;;2.55;0.70;;;17.60;95.90;;;;;;5052180;28;20049;-69
2022/10/25 09:05:40;;;;;;;3.22;0.73;;;17.60;96.10;;;;;;5040600;28;20036;-69
2022/10/25 09:08:14;;;;;;;3.05;1.00;;;17.60;96.10;;;;;;5052296;28;20056;-69
2022/10/25 09:11:11;;;;;;;9.25;0.98;;;17.60;96.30;;;;;;5051142;28;20064;-69
2022/10/25 09:13:39;;;;;;;5.90;1.33;;;17.60;96.50;;;;;;5051469;28;20056;-69
2022/10/25 09:16:18;;;;;;;3.25;0.82;;;17.60;96.70;;;;;;5052377;28;20067;-70
2022/10/25 09:18:55;;;;;;;2.17;0.90;;;17.60;96.80;;;;;;5053098;28;20047;-69
2022/10/25 09:21:27;;;;;;;5.00;0.90;;;17.60;96.80;;;;;;5055562;28;20041;-70
2022/10/25 09:24:21;;;;;;;6.57;1.00;;;17.60;96.80;;;;;;5055519;28;20407;-69
2022/10/25 09:27:21;;;;;;;1.70;0.85;;;17.70;96.80;;;;;;5055532;28;20146;-69
2022/10/25 09:29:54;;;;;;;4.35;0.80;;;17.70;96.70;;;;;;5039564;28;20037;-69
2022/10/25 09:32:41;;;;;;;2.53;0.93;;;17.80;96.50;;;;;;5055104;28;20033;-70
2022/10/25 09:35:29;;;;;;;3.67;1.65;;;17.90;96.30;;;;;;5057455;28;20044;-69
2022/10/25 09:38:10;;;;;;;2.58;0.98;;;18.00;96.00;;;;;;5062802;28;20036;-69
2022/10/25 09:40:44;;;;;;;4.95;0.80;;;18.00;95.60;;;;;;5058910;28;20044;-72
2022/10/25 09:43:16;;;;;;;1.23;0.68;;;18.10;95.80;;;;;;5062455;28;20036;-70
2022/10/25 09:45:45;;;;;;;2.90;0.88;;;18.00;96.00;;;;;;5063520;28;20074;-71
2022/10/25 09:48:36;;;;;;;2.22;0.95;;;18.10;96.10;;;;;;5068103;28;20140;-69
2022/10/25 09:51:14;;;;;;;5.18;0.77;;;18.00;95.80;;;;;;5065716;28;20037;-69
2022/10/25 09:53:42;;;;;;;1.55;0.70;;;18.10;95.50;;;;;;5059686;28;20095;-69
2022/10/25 09:56:08;;;;;;;8.50;0.60;;;18.10;95.20;;;;;;5063323;28;20475;-68
2022/10/25 09:58:38;;;;;;;1.23;0.60;;;18.20;94.80;;;;;;5064382;28;20033;-68
2022/10/25 10:01:07;;;;;;;4.78;0.68;;;18.20;94.50;;;;;;5061039;28;20033;-69
2022/10/25 10:03:35;;;;;;;1.65;0.60;;;18.30;94.30;;;;;;5062185;28;20098;-69
2022/10/25 10:41:33;;;;;;;3.35;1.00;;;19.20;92.40;;;;;;5088589;27;20102;-69
2022/10/25 10:44:12;;;;;;;4.47;0.77;;;19.80;91.30;;;;;;5055158;28;20040;-69
2022/10/25 10:46:48;;;;;;;1.42;0.90;;;19.90;91.10;;;;;;5087614;28;20099;-69
2022/10/25 10:49:28;;;;;;;3.50;0.90;;;20.00;91.20;;;;;;5086796;28;20029;-69
2022/10/25 10:51:55;;;;;;;2.90;0.80;;;20.00;90.90;;;;;;5085522;28;20024;-66
2022/10/25 10:54:44;;;;;;;3.38;0.90;;;20.10;90.90;;;;;;5088366;28;20016;-67
2022/10/25 10:57:23;;;;;;;1.88;0.77;;;20.10;90.80;;;;;;5086291;28;20388;-67
2022/10/25 10:59:55;;;;;;;5.82;1.00;;;20.20;90.30;;;;;;5085647;28;20494;-67
2022/10/25 11:02:24;;;;;;;1.90;0.75;;;20.10;90.50;;;;;;5088429;28;20055;-67
2022/10/25 11:04:54;;;;;;;5.63;0.70;;;20.20;90.40;;;;;;5085859;28;20099;-67
2022/10/25 11:07:33;;;;;;;3.28;0.95;;;20.20;90.50;;;;;;5088235;28;20077;-66
2022/10/25 11:10:22;;;;;;;1.60;0.80;;;20.20;90.60;;;;;;5086815;28;20035;-68
2022/10/25 11:13:24;;;;;;;4.85;1.00;;;20.30;90.20;;;;;;5085275;28;20020;-68
2022/10/25 11:16:08;;;;;;;4.40;0.80;;;20.20;90.20;;;;;;5025497;28;20024;-70
2022/10/25 11:18:49;;;;;;;2.92;0.90;;;20.30;90.50;;;;;;5081803;28;20059;-71
2022/10/25 11:21:18;;;;;;;2.28;0.70;;;20.30;90.80;;;;;;5086386;28;20059;-67
2022/10/25 11:24:19;;;;;;;1.23;0.50;;;20.40;90.40;;;;;;5088201;28;20409;-69
2022/10/25 11:26:45;;;;;;;2.70;0.80;;;20.30;89.60;;;;;;5074991;28;20033;-70
2022/10/25 11:29:48;;;;;;;0.90;0.50;;;20.40;89.50;;;;;;5088028;28;20024;-71
2022/10/25 11:32:45;;;;;;;0.98;0.35;;;20.40;88.40;;;;;;5045777;28;20021;-72
2022/10/25 11:35:26;;;;;;;1.45;0.70;;;20.40;87.40;;;;;;5084177;28;20359;-69
2022/10/25 11:38:06;;;;;;;1.48;0.52;;;20.60;87.30;;;;;;5085627;28;20047;-68
2022/10/25 11:40:38;;;;;;;1.83;0.52;;;20.60;88.30;;;;;;5079875;28;20067;-69
2022/10/25 11:43:22;;;;;;;1.95;0.55;;;20.70;87.00;;;;;;5074162;28;20043;-69
2022/10/25 11:46:00;;;;;;;1.70;0.52;;;20.70;86.60;;;;;;5073712;28;20035;-69
2022/10/25 11:48:50;;;;;;;3.25;0.60;;;20.80;86.10;;;;;;5074763;28;20497;-69
2022/10/25 11:51:36;;;;;;;1.55;0.55;;;20.90;85.60;;;;;;5075529;28;20431;-69
2022/10/25 11:54:14;;;;;;;4.13;0.75;;;21.00;84.20;;;;;;5064798;28;20033;-69
2022/10/25 11:56:45;;;;;;;1.05;0.60;;;21.10;84.10;;;;;;5075778;28;20039;-69
2022/10/25 11:59:16;;;;;;;1.27;0.40;;;21.20;84.10;;;;;;5075463;28;20066;-69
2022/10/25 12:02:00;;;;;;;1.67;0.60;;;21.20;83.20;;;;;;5074531;28;20486;-68
2022/10/25 12:04:53;;;;;;;1.70;0.50;;;21.30;82.80;;;;;;5075255;28;20029;-68
2022/10/25 12:07:32;;;;;;;2.55;0.80;;;21.40;82.40;;;;;;5075217;28;20098;-67
2022/10/25 12:10:17;;;;;;;2.38;0.70;;;21.50;81.90;;;;;;5075274;28;20120;-68
2022/10/25 12:13:00;;;;;;;1.17;0.50;;;21.50;82.20;;;;;;5075127;28;20032;-68
2022/10/25 12:15:45;;;;;;;2.00;0.80;;;21.60;82.40;;;;;;5075241;28;20013;-68
2022/10/25 12:18:18;;;;;;;1.80;0.63;;;21.70;82.00;;;;;;5074953;28;20060;-68
2022/10/25 12:20:46;;;;;;;2.40;0.60;;;21.70;81.80;;;;;;5075119;28;20032;-68
2022/10/25 12:23:19;;;;;;;1.33;0.60;;;21.80;80.80;;;;;;5075047;28;20104;-68
2022/10/25 12:26:00;;;;;;;3.80;0.75;;;21.80;81.40;;;;;;5075083;28;20017;-68
2022/10/25 12:28:43;;;;;;;2.53;0.70;;;21.80;81.80;;;;;;5074940;28;20096;-68
2022/10/25 12:31:19;;;;;;;2.60;0.50;;;21.90;80.90;;;;;;5074970;28;20029;-68
2022/10/25 12:34:11;;;;;;;2.15;1.30;;;21.90;80.90;;;;;;5073445;28;20386;-68
2022/10/25 12:36:43;;;;;;;1.65;0.50;;;22.00;80.50;;;;;;5074835;28;20028;-68
2022/10/25 12:39:21;;;;;;;2.45;0.60;;;22.00;80.10;;;;;;5074458;28;20052;-68
2022/10/25 12:42:05;;;;;;;1.05;0.43;;;22.00;79.50;;;;;;5074303;28;20474;-68
2022/10/25 12:45:08;;;;;;;3.85;0.70;;;22.00;79.00;;;;;;5072600;28;20017;-68
2022/10/25 12:47:54;;;;;;;1.77;0.70;;;22.00;79.20;;;;;;5074038;28;20433;-68
2022/10/25 12:50:28;;;;;;;3.03;0.70;;;22.10;79.90;;;;;;5043288;28;20087;-67
2022/10/25 12:52:56;;;;;;;51.47;3.08;;;22.10;79.70;;;;;;5073459;28;20043;-68
2022/10/25 12:56:00;;;;;;;3.85;0.65;;;22.20;79.00;;;;;;5074401;28;20435;-68
2022/10/25 12:58:29;;;;;;;1.38;0.60;;;22.20;77.70;;;;;;5012628;28;20391;-68
2022/10/25 13:01:06;;;;;;;1.92;0.60;;;22.20;77.30;;;;;;5062792;28;20050;-68
2022/10/25 13:03:31;;;;;;;2.38;0.70;;;22.30;76.50;;;;;;5073998;28;20367;-68
2022/10/25 13:06:34;;;;;;;2.13;0.60;;;22.30;76.10;;;;;;5074164;28;20051;-68
2022/10/25 13:09:09;;;;;;;3.40;0.70;;;22.30;77.60;;;;;;5073637;28;20532;-68
2022/10/25 13:11:41;;;;;;;2.38;0.88;;;22.30;77.20;;;;;;5074262;28;20378;-69
2022/10/25 13:14:24;;;;;;;4.10;0.90;;;22.30;76.90;;;;;;5074021;28;20360;-68
2022/10/25 13:16:50;;;;;;;2.42;0.90;;;22.30;77.00;;;;;;5073913;28;20063;-67
2022/10/25 13:19:29;;;;;;;7.78;1.13;;;22.30;76.50;;;;;;5073664;28;20048;-69
2022/10/25 13:21:54;;;;;;;3.67;0.68;;;22.30;77.10;;;;;;5073714;28;20087;-67
2022/10/25 13:24:44;;;;;;;1.67;0.68;;;22.30;77.10;;;;;;5073797;28;20028;-67
2022/10/25 13:27:12;;;;;;;1.52;0.60;;;22.30;76.30;;;;;;5073772;28;20135;-65
2022/10/25 13:29:47;;;;;;;3.92;0.60;;;22.30;76.50;;;;;;5073535;28;20091;-66
2022/10/25 13:32:19;;;;;;;4.10;0.77;;;22.20;76.90;;;;;;5073172;28;20055;-67
2022/10/25 13:34:45;;;;;;;;;;;22.20;76.80;;;;;;5073864;28;20096;-66
2022/10/25 13:37:32;;;;;;;2.45;0.75;;;22.20;76.80;;;;;;5072367;28;19995;-67
2022/10/25 13:40:02;;;;;;;2.20;0.95;;;22.10;75.40;;;;;;5073436;28;20080;-67
2022/10/25 13:42:36;;;;;;;4.43;1.77;;;22.10;75.10;;;;;;5073147;28;20035;-67
2022/10/25 13:45:02;;;;;;;5.85;2.20;;;22.10;75.30;;;;;;5072019;28;20025;-67